sensor_id;sensor_type;location;lat;lon;timestamp;temperature;humidity
12408;DHT22;6268;48.188;17.134;2023-05-10T00:02:02;11.80;99.90
12408;DHT22;6268;48.188;17.134;2023-05-10T00:04:31;11.80;99.90
12408;DHT22;6268;48.188;17.134;2023-05-10T00:06:59;11.80;99.90
12408;DHT22;6268;48.188;17.134;2023-05-10T00:09:28;11.80;99.90
12408;DHT22;6268;48.188;17.134;2023-05-10T00:11:58;11.80;99.90
12408;DHT22;6268;48.188;17.134;2023-05-10T00:14:27;11.70;99.90
12408;DHT22;6268;48.188;17.134;2023-05-10T00:16:56;11.80;99.90
12408;DHT22;6268;48.188;17.134;2023-05-10T00:19:25;11.60;99.90
12408;DHT22;6268;48.188;17.134;2023-05-10T00:21:54;11.70;99.90
12408;DHT22;6268;48.188;17.134;2023-05-10T00:24:23;11.60;99.90
12408;DHT22;6268;48.188;17.134;2023-05-10T00:26:52;11.60;99.90
12408;DHT22;6268;48.188;17.134;2023-05-10T00:29:22;11.60;99.90
12408;DHT22;6268;48.188;17.134;2023-05-10T00:31:51;11.70;99.90
12408;DHT22;6268;48.188;17.134;2023-05-10T00:34:20;11.70;99.90
12408;DHT22;6268;48.188;17.134;2023-05-10T00:36:48;11.60;99.90
12408;DHT22;6268;48.188;17.134;2023-05-10T00:39:17;11.60;99.90
12408;DHT22;6268;48.188;17.134;2023-05-10T00:41:46;11.60;99.90
12408;DHT22;6268;48.188;17.134;2023-05-10T00:44:15;11.50;99.90
12408;DHT22;6268;48.188;17.134;2023-05-10T00:46:45;11.60;99.90
12408;DHT22;6268;48.188;17.134;2023-05-10T00:49:15;11.60;99.90
12408;DHT22;6268;48.188;17.134;2023-05-10T00:51:44;11.60;99.90
12408;DHT22;6268;48.188;17.134;2023-05-10T00:54:14;11.60;99.90
12408;DHT22;6268;48.188;17.134;2023-05-10T00:56:44;11.50;99.90
12408;DHT22;6268;48.188;17.134;2023-05-10T00:59:16;11.50;99.90
12408;DHT22;6268;48.188;17.134;2023-05-10T01:01:46;11.50;99.90
12408;DHT22;6268;48.188;17.134;2023-05-10T01:04:15;11.50;99.90
12408;DHT22;6268;48.188;17.134;2023-05-10T01:06:44;11.40;99.90
12408;DHT22;6268;48.188;17.134;2023-05-10T01:09:13;11.30;99.90
12408;DHT22;6268;48.188;17.134;2023-05-10T01:11:42;11.40;99.90
12408;DHT22;6268;48.188;17.134;2023-05-10T01:14:11;11.40;99.90
12408;DHT22;6268;48.188;17.134;2023-05-10T01:16:41;11.40;99.90
12408;DHT22;6268;48.188;17.134;2023-05-10T01:19:16;11.40;99.90
12408;DHT22;6268;48.188;17.134;2023-05-10T01:25:11;11.30;99.90
12408;DHT22;6268;48.188;17.134;2023-05-10T01:28:13;11.20;99.90
12408;DHT22;6268;48.188;17.134;2023-05-10T01:31:18;11.20;99.90
12408;DHT22;6268;48.188;17.134;2023-05-10T01:34:02;11.10;99.90
12408;DHT22;6268;48.188;17.134;2023-05-10T01:36:43;11.10;99.90
12408;DHT22;6268;48.188;17.134;2023-05-10T01:39:20;11.20;99.90
12408;DHT22;6268;48.188;17.134;2023-05-10T01:41:57;11.10;99.90
12408;DHT22;6268;48.188;17.134;2023-05-10T01:44:35;11.10;99.90
12408;DHT22;6268;48.188;17.134;2023-05-10T01:47:11;11.20;99.90
12408;DHT22;6268;48.188;17.134;2023-05-10T01:49:49;11.10;99.90
12408;DHT22;6268;48.188;17.134;2023-05-10T01:52:22;10.90;99.90
12408;DHT22;6268;48.188;17.134;2023-05-10T01:55:01;11.00;99.90
12408;DHT22;6268;48.188;17.134;2023-05-10T01:57:34;11.00;99.90
12408;DHT22;6268;48.188;17.134;2023-05-10T02:00:08;11.00;99.90
12408;DHT22;6268;48.188;17.134;2023-05-10T02:02:40;11.00;99.90
12408;DHT22;6268;48.188;17.134;2023-05-10T02:05:13;11.10;99.90
12408;DHT22;6268;48.188;17.134;2023-05-10T02:07:43;11.00;99.90
12408;DHT22;6268;48.188;17.134;2023-05-10T02:10:14;11.10;99.90
12408;DHT22;6268;48.188;17.134;2023-05-10T02:12:47;10.90;99.90
12408;DHT22;6268;48.188;17.134;2023-05-10T02:15:19;11.00;99.90
12408;DHT22;6268;48.188;17.134;2023-05-10T02:17:53;10.90;99.90
12408;DHT22;6268;48.188;17.134;2023-05-10T02:20:26;10.90;99.90
12408;DHT22;6268;48.188;17.134;2023-05-10T02:22:56;10.80;99.90
12408;DHT22;6268;48.188;17.134;2023-05-10T02:25:27;10.80;99.90
12408;DHT22;6268;48.188;17.134;2023-05-10T02:27:58;10.80;99.90
12408;DHT22;6268;48.188;17.134;2023-05-10T02:30:31;10.80;99.90
12408;DHT22;6268;48.188;17.134;2023-05-10T02:33:02;10.80;99.90
12408;DHT22;6268;48.188;17.134;2023-05-10T02:35:35;10.70;99.90
12408;DHT22;6268;48.188;17.134;2023-05-10T02:38:06;10.70;99.90
12408;DHT22;6268;48.188;17.134;2023-05-10T02:40:37;10.60;99.90
12408;DHT22;6268;48.188;17.134;2023-05-10T02:43:10;10.60;99.90
12408;DHT22;6268;48.188;17.134;2023-05-10T02:45:42;10.40;99.90
12408;DHT22;6268;48.188;17.134;2023-05-10T02:48:13;10.40;99.90
12408;DHT22;6268;48.188;17.134;2023-05-10T02:50:44;10.50;99.90
12408;DHT22;6268;48.188;17.134;2023-05-10T02:53:22;10.50;99.90
12408;DHT22;6268;48.188;17.134;2023-05-10T02:55:58;10.50;99.90
12408;DHT22;6268;48.188;17.134;2023-05-10T02:58:30;10.40;99.90
12408;DHT22;6268;48.188;17.134;2023-05-10T03:01:00;10.40;99.90
12408;DHT22;6268;48.188;17.134;2023-05-10T03:03:29;10.40;99.90
12408;DHT22;6268;48.188;17.134;2023-05-10T03:05:59;10.30;99.90
12408;DHT22;6268;48.188;17.134;2023-05-10T03:08:27;10.30;99.90
12408;DHT22;6268;48.188;17.134;2023-05-10T03:11:11;10.40;99.90
12408;DHT22;6268;48.188;17.134;2023-05-10T03:14:00;10.50;99.90
12408;DHT22;6268;48.188;17.134;2023-05-10T03:16:42;10.50;99.90
12408;DHT22;6268;48.188;17.134;2023-05-10T03:19:19;10.30;99.90
12408;DHT22;6268;48.188;17.134;2023-05-10T03:21:58;10.20;99.90
12408;DHT22;6268;48.188;17.134;2023-05-10T03:24:34;10.30;99.90
12408;DHT22;6268;48.188;17.134;2023-05-10T03:27:06;10.30;99.90
12408;DHT22;6268;48.188;17.134;2023-05-10T03:29:36;10.40;99.90
12408;DHT22;6268;48.188;17.134;2023-05-10T03:32:06;10.50;99.90
12408;DHT22;6268;48.188;17.134;2023-05-10T03:34:41;10.50;99.90
12408;DHT22;6268;48.188;17.134;2023-05-10T03:37:12;10.40;99.90
12408;DHT22;6268;48.188;17.134;2023-05-10T03:39:40;10.30;99.90
12408;DHT22;6268;48.188;17.134;2023-05-10T03:42:09;10.30;99.90
12408;DHT22;6268;48.188;17.134;2023-05-10T03:44:39;10.40;99.90
12408;DHT22;6268;48.188;17.134;2023-05-10T03:47:08;10.50;99.90
12408;DHT22;6268;48.188;17.134;2023-05-10T03:49:36;10.60;99.90
12408;DHT22;6268;48.188;17.134;2023-05-10T03:52:05;10.70;99.90
12408;DHT22;6268;48.188;17.134;2023-05-10T03:54:35;10.90;99.90
12408;DHT22;6268;48.188;17.134;2023-05-10T03:57:04;11.20;99.90
12408;DHT22;6268;48.188;17.134;2023-05-10T03:59:33;11.40;99.90
12408;DHT22;6268;48.188;17.134;2023-05-10T04:02:02;11.40;99.90
12408;DHT22;6268;48.188;17.134;2023-05-10T04:04:31;11.50;99.90
12408;DHT22;6268;48.188;17.134;2023-05-10T04:06:59;11.50;99.90
12408;DHT22;6268;48.188;17.134;2023-05-10T04:09:28;11.50;99.90
12408;DHT22;6268;48.188;17.134;2023-05-10T04:11:58;11.60;99.90
12408;DHT22;6268;48.188;17.134;2023-05-10T04:14:29;12.00;99.90
12408;DHT22;6268;48.188;17.134;2023-05-10T04:16:57;12.10;99.90
12408;DHT22;6268;48.188;17.134;2023-05-10T04:19:29;12.50;99.90
12408;DHT22;6268;48.188;17.134;2023-05-10T04:21:58;12.70;99.90
12408;DHT22;6268;48.188;17.134;2023-05-10T04:24:27;12.80;99.90
12408;DHT22;6268;48.188;17.134;2023-05-10T04:26:57;13.00;99.90
12408;DHT22;6268;48.188;17.134;2023-05-10T04:29:26;13.30;99.90
12408;DHT22;6268;48.188;17.134;2023-05-10T04:31:54;13.50;99.90
12408;DHT22;6268;48.188;17.134;2023-05-10T04:34:23;13.50;99.90
12408;DHT22;6268;48.188;17.134;2023-05-10T04:36:53;13.40;99.90
12408;DHT22;6268;48.188;17.134;2023-05-10T04:39:21;13.70;99.90
12408;DHT22;6268;48.188;17.134;2023-05-10T04:41:50;13.70;99.90
12408;DHT22;6268;48.188;17.134;2023-05-10T04:44:20;13.60;99.90
12408;DHT22;6268;48.188;17.134;2023-05-10T04:46:49;13.80;99.90
12408;DHT22;6268;48.188;17.134;2023-05-10T04:49:18;14.10;99.90
12408;DHT22;6268;48.188;17.134;2023-05-10T04:51:46;14.60;99.90
12408;DHT22;6268;48.188;17.134;2023-05-10T04:54:15;14.80;99.90
12408;DHT22;6268;48.188;17.134;2023-05-10T04:56:44;14.60;99.90
12408;DHT22;6268;48.188;17.134;2023-05-10T04:59:13;15.00;99.90
12408;DHT22;6268;48.188;17.134;2023-05-10T05:01:43;15.40;99.90
12408;DHT22;6268;48.188;17.134;2023-05-10T05:04:12;15.70;99.90
12408;DHT22;6268;48.188;17.134;2023-05-10T05:06:41;16.30;99.90
12408;DHT22;6268;48.188;17.134;2023-05-10T05:09:10;15.80;99.90
12408;DHT22;6268;48.188;17.134;2023-05-10T05:11:39;15.90;99.90
12408;DHT22;6268;48.188;17.134;2023-05-10T05:14:07;16.90;99.90
12408;DHT22;6268;48.188;17.134;2023-05-10T05:16:36;17.20;99.90
12408;DHT22;6268;48.188;17.134;2023-05-10T05:19:06;17.30;99.90
12408;DHT22;6268;48.188;17.134;2023-05-10T05:21:35;16.80;99.90
12408;DHT22;6268;48.188;17.134;2023-05-10T05:24:05;17.20;99.90
12408;DHT22;6268;48.188;17.134;2023-05-10T05:26:34;18.00;99.90
12408;DHT22;6268;48.188;17.134;2023-05-10T05:29:03;18.00;99.90
12408;DHT22;6268;48.188;17.134;2023-05-10T05:31:32;18.00;99.90
12408;DHT22;6268;48.188;17.134;2023-05-10T05:34:02;18.10;99.90
12408;DHT22;6268;48.188;17.134;2023-05-10T05:36:35;18.60;97.90
12408;DHT22;6268;48.188;17.134;2023-05-10T05:39:05;18.10;97.60
12408;DHT22;6268;48.188;17.134;2023-05-10T05:41:34;17.80;99.90
12408;DHT22;6268;48.188;17.134;2023-05-10T05:44:03;17.80;99.90
12408;DHT22;6268;48.188;17.134;2023-05-10T05:46:31;18.50;98.60
12408;DHT22;6268;48.188;17.134;2023-05-10T05:49:00;19.10;96.20
12408;DHT22;6268;48.188;17.134;2023-05-10T05:51:29;18.60;96.90
12408;DHT22;6268;48.188;17.134;2023-05-10T05:53:59;18.90;96.30
12408;DHT22;6268;48.188;17.134;2023-05-10T05:56:28;19.20;96.20
12408;DHT22;6268;48.188;17.134;2023-05-10T05:58:56;19.00;95.60
12408;DHT22;6268;48.188;17.134;2023-05-10T06:01:25;18.70;97.40
12408;DHT22;6268;48.188;17.134;2023-05-10T06:03:54;17.40;99.90
12408;DHT22;6268;48.188;17.134;2023-05-10T06:06:23;17.20;99.90
12408;DHT22;6268;48.188;17.134;2023-05-10T06:08:51;16.90;99.90
12408;DHT22;6268;48.188;17.134;2023-05-10T06:11:21;17.70;99.90
12408;DHT22;6268;48.188;17.134;2023-05-10T06:13:50;17.40;99.90
12408;DHT22;6268;48.188;17.134;2023-05-10T06:16:19;17.30;99.90
12408;DHT22;6268;48.188;17.134;2023-05-10T06:18:48;17.60;99.90
12408;DHT22;6268;48.188;17.134;2023-05-10T06:21:17;17.70;99.90
12408;DHT22;6268;48.188;17.134;2023-05-10T06:23:46;17.30;99.90
12408;DHT22;6268;48.188;17.134;2023-05-10T06:26:14;16.60;99.90
12408;DHT22;6268;48.188;17.134;2023-05-10T06:28:44;16.40;99.90
12408;DHT22;6268;48.188;17.134;2023-05-10T06:31:13;16.70;99.90
12408;DHT22;6268;48.188;17.134;2023-05-10T06:33:43;17.30;99.90
12408;DHT22;6268;48.188;17.134;2023-05-10T06:36:11;17.40;99.90
12408;DHT22;6268;48.188;17.134;2023-05-10T06:38:41;17.10;99.90
12408;DHT22;6268;48.188;17.134;2023-05-10T06:41:09;17.30;99.90
12408;DHT22;6268;48.188;17.134;2023-05-10T06:43:38;17.70;99.90
12408;DHT22;6268;48.188;17.134;2023-05-10T06:46:09;17.20;99.90
12408;DHT22;6268;48.188;17.134;2023-05-10T06:48:38;17.60;99.90
12408;DHT22;6268;48.188;17.134;2023-05-10T06:51:07;17.90;99.90
12408;DHT22;6268;48.188;17.134;2023-05-10T06:53:36;18.00;99.90
12408;DHT22;6268;48.188;17.134;2023-05-10T06:56:05;17.30;99.90
12408;DHT22;6268;48.188;17.134;2023-05-10T06:58:34;17.30;99.90
12408;DHT22;6268;48.188;17.134;2023-05-10T07:01:03;17.80;99.90
12408;DHT22;6268;48.188;17.134;2023-05-10T07:03:33;17.60;99.90
12408;DHT22;6268;48.188;17.134;2023-05-10T07:06:03;17.90;99.90
12408;DHT22;6268;48.188;17.134;2023-05-10T07:08:41;19.00;99.80
12408;DHT22;6268;48.188;17.134;2023-05-10T07:11:10;19.40;97.80
12408;DHT22;6268;48.188;17.134;2023-05-10T07:13:39;19.70;95.70
12408;DHT22;6268;48.188;17.134;2023-05-10T07:16:11;19.40;95.50
12408;DHT22;6268;48.188;17.134;2023-05-10T07:18:41;19.20;96.40
12408;DHT22;6268;48.188;17.134;2023-05-10T07:21:10;19.20;95.80
12408;DHT22;6268;48.188;17.134;2023-05-10T07:23:39;18.90;95.50
12408;DHT22;6268;48.188;17.134;2023-05-10T07:26:10;18.60;98.00
12408;DHT22;6268;48.188;17.134;2023-05-10T07:28:39;18.80;96.70
12408;DHT22;6268;48.188;17.134;2023-05-10T07:31:08;18.70;96.70
12408;DHT22;6268;48.188;17.134;2023-05-10T07:33:37;18.60;96.70
12408;DHT22;6268;48.188;17.134;2023-05-10T07:36:08;19.00;95.90
12408;DHT22;6268;48.188;17.134;2023-05-10T07:38:36;18.60;96.80
12408;DHT22;6268;48.188;17.134;2023-05-10T07:41:07;18.70;96.60
12408;DHT22;6268;48.188;17.134;2023-05-10T07:43:35;19.30;95.10
12408;DHT22;6268;48.188;17.134;2023-05-10T07:46:05;19.90;92.70
12408;DHT22;6268;48.188;17.134;2023-05-10T07:48:33;20.50;91.30
12408;DHT22;6268;48.188;17.134;2023-05-10T07:51:02;20.20;90.20
12408;DHT22;6268;48.188;17.134;2023-05-10T07:53:33;20.00;91.00
12408;DHT22;6268;48.188;17.134;2023-05-10T07:56:20;19.70;91.10
12408;DHT22;6268;48.188;17.134;2023-05-10T07:58:50;19.60;91.20
12408;DHT22;6268;48.188;17.134;2023-05-10T08:01:20;20.20;90.70
12408;DHT22;6268;48.188;17.134;2023-05-10T08:03:49;20.20;89.20
12408;DHT22;6268;48.188;17.134;2023-05-10T08:06:19;20.20;89.10
12408;DHT22;6268;48.188;17.134;2023-05-10T08:08:49;20.40;86.40
12408;DHT22;6268;48.188;17.134;2023-05-10T08:11:19;21.00;82.90
12408;DHT22;6268;48.188;17.134;2023-05-10T08:13:49;20.60;83.50
12408;DHT22;6268;48.188;17.134;2023-05-10T08:16:18;21.20;81.60
12408;DHT22;6268;48.188;17.134;2023-05-10T08:18:47;21.40;79.70
12408;DHT22;6268;48.188;17.134;2023-05-10T08:21:17;21.40;78.00
12408;DHT22;6268;48.188;17.134;2023-05-10T08:23:46;21.40;77.70
12408;DHT22;6268;48.188;17.134;2023-05-10T08:26:17;20.40;80.70
12408;DHT22;6268;48.188;17.134;2023-05-10T08:28:46;20.50;81.50
12408;DHT22;6268;48.188;17.134;2023-05-10T08:31:15;20.80;79.00
12408;DHT22;6268;48.188;17.134;2023-05-10T08:33:44;20.40;79.60
12408;DHT22;6268;48.188;17.134;2023-05-10T08:36:12;20.50;79.20
12408;DHT22;6268;48.188;17.134;2023-05-10T08:38:46;21.00;78.40
12408;DHT22;6268;48.188;17.134;2023-05-10T08:41:19;21.30;78.20
12408;DHT22;6268;48.188;17.134;2023-05-10T08:43:49;20.70;79.00
12408;DHT22;6268;48.188;17.134;2023-05-10T08:46:20;20.90;76.10
12408;DHT22;6268;48.188;17.134;2023-05-10T08:48:51;21.30;75.50
12408;DHT22;6268;48.188;17.134;2023-05-10T08:51:24;21.10;73.30
12408;DHT22;6268;48.188;17.134;2023-05-10T08:53:55;21.20;74.40
12408;DHT22;6268;48.188;17.134;2023-05-10T08:56:25;21.40;72.60
12408;DHT22;6268;48.188;17.134;2023-05-10T08:58:54;21.50;72.00
12408;DHT22;6268;48.188;17.134;2023-05-10T09:01:25;21.70;71.70
12408;DHT22;6268;48.188;17.134;2023-05-10T09:03:56;21.00;74.40
12408;DHT22;6268;48.188;17.134;2023-05-10T09:06:26;20.50;77.80
12408;DHT22;6268;48.188;17.134;2023-05-10T09:08:55;20.00;78.00
12408;DHT22;6268;48.188;17.134;2023-05-10T09:11:27;19.50;81.60
12408;DHT22;6268;48.188;17.134;2023-05-10T09:13:57;20.20;79.90
12408;DHT22;6268;48.188;17.134;2023-05-10T09:16:25;20.60;79.60
12408;DHT22;6268;48.188;17.134;2023-05-10T09:18:54;21.00;74.40
12408;DHT22;6268;48.188;17.134;2023-05-10T09:21:23;21.10;75.10
12408;DHT22;6268;48.188;17.134;2023-05-10T09:23:52;21.50;75.50
12408;DHT22;6268;48.188;17.134;2023-05-10T09:26:25;21.00;75.20
12408;DHT22;6268;48.188;17.134;2023-05-10T09:28:56;20.40;76.00
12408;DHT22;6268;48.188;17.134;2023-05-10T09:31:44;20.40;78.20
12408;DHT22;6268;48.188;17.134;2023-05-10T09:34:19;20.10;78.60
12408;DHT22;6268;48.188;17.134;2023-05-10T09:36:52;20.40;78.80
12408;DHT22;6268;48.188;17.134;2023-05-10T09:39:33;20.80;75.40
12408;DHT22;6268;48.188;17.134;2023-05-10T09:42:05;20.50;77.50
12408;DHT22;6268;48.188;17.134;2023-05-10T09:44:36;20.50;75.70
12408;DHT22;6268;48.188;17.134;2023-05-10T09:47:05;21.00;74.80
12408;DHT22;6268;48.188;17.134;2023-05-10T09:49:34;20.80;74.90
12408;DHT22;6268;48.188;17.134;2023-05-10T09:52:04;20.80;75.70
12408;DHT22;6268;48.188;17.134;2023-05-10T09:54:34;21.00;76.10
12408;DHT22;6268;48.188;17.134;2023-05-10T09:57:04;20.90;76.20
12408;DHT22;6268;48.188;17.134;2023-05-10T09:59:33;20.70;76.40
12408;DHT22;6268;48.188;17.134;2023-05-10T10:02:03;20.20;78.30
12408;DHT22;6268;48.188;17.134;2023-05-10T10:04:32;19.60;81.00
12408;DHT22;6268;48.188;17.134;2023-05-10T10:07:07;20.10;78.30
12408;DHT22;6268;48.188;17.134;2023-05-10T10:09:36;20.20;77.60
12408;DHT22;6268;48.188;17.134;2023-05-10T10:12:06;20.30;75.80
12408;DHT22;6268;48.188;17.134;2023-05-10T10:14:35;19.90;77.40
12408;DHT22;6268;48.188;17.134;2023-05-10T10:17:04;19.30;79.70
12408;DHT22;6268;48.188;17.134;2023-05-10T10:19:35;19.40;81.50
12408;DHT22;6268;48.188;17.134;2023-05-10T10:22:04;19.90;78.80
12408;DHT22;6268;48.188;17.134;2023-05-10T10:24:33;20.20;78.40
12408;DHT22;6268;48.188;17.134;2023-05-10T10:27:13;20.30;77.90
12408;DHT22;6268;48.188;17.134;2023-05-10T10:30:01;20.30;77.60
12408;DHT22;6268;48.188;17.134;2023-05-10T10:32:59;20.40;75.80
12408;DHT22;6268;48.188;17.134;2023-05-10T10:35:54;19.70;77.50
12408;DHT22;6268;48.188;17.134;2023-05-10T10:38:25;19.20;78.90
12408;DHT22;6268;48.188;17.134;2023-05-10T10:41:10;19.20;80.80
12408;DHT22;6268;48.188;17.134;2023-05-10T10:47:07;20.10;77.00
12408;DHT22;6268;48.188;17.134;2023-05-10T10:50:02;19.70;78.70
12408;DHT22;6268;48.188;17.134;2023-05-10T10:52:33;19.40;78.80
12408;DHT22;6268;48.188;17.134;2023-05-10T10:55:05;19.00;80.30
12408;DHT22;6268;48.188;17.134;2023-05-10T10:57:46;19.30;81.20
12408;DHT22;6268;48.188;17.134;2023-05-10T11:00:35;19.40;81.90
12408;DHT22;6268;48.188;17.134;2023-05-10T11:03:06;19.30;80.50
12408;DHT22;6268;48.188;17.134;2023-05-10T11:05:41;19.30;79.70
12408;DHT22;6268;48.188;17.134;2023-05-10T11:08:16;19.40;80.70
12408;DHT22;6268;48.188;17.134;2023-05-10T11:11:01;19.70;79.70
12408;DHT22;6268;48.188;17.134;2023-05-10T11:13:41;19.50;78.70
12408;DHT22;6268;48.188;17.134;2023-05-10T11:16:19;19.30;80.40
12408;DHT22;6268;48.188;17.134;2023-05-10T11:18:59;19.30;80.10
12408;DHT22;6268;48.188;17.134;2023-05-10T11:21:30;19.70;80.60
12408;DHT22;6268;48.188;17.134;2023-05-10T11:24:01;19.60;79.30
12408;DHT22;6268;48.188;17.134;2023-05-10T11:26:35;19.70;79.60
12408;DHT22;6268;48.188;17.134;2023-05-10T11:29:04;19.20;78.60
12408;DHT22;6268;48.188;17.134;2023-05-10T11:31:34;18.90;80.50
12408;DHT22;6268;48.188;17.134;2023-05-10T11:34:03;19.10;81.50
12408;DHT22;6268;48.188;17.134;2023-05-10T11:36:35;19.30;81.20
12408;DHT22;6268;48.188;17.134;2023-05-10T11:39:05;19.30;81.00
12408;DHT22;6268;48.188;17.134;2023-05-10T11:41:34;19.10;80.00
12408;DHT22;6268;48.188;17.134;2023-05-10T11:44:03;19.10;80.40
12408;DHT22;6268;48.188;17.134;2023-05-10T11:46:31;19.20;79.10
12408;DHT22;6268;48.188;17.134;2023-05-10T11:49:02;19.40;81.00
12408;DHT22;6268;48.188;17.134;2023-05-10T11:51:35;19.00;80.10
12408;DHT22;6268;48.188;17.134;2023-05-10T11:54:06;18.90;81.40
12408;DHT22;6268;48.188;17.134;2023-05-10T11:56:36;18.80;79.20
12408;DHT22;6268;48.188;17.134;2023-05-10T11:59:06;18.90;79.10
12408;DHT22;6268;48.188;17.134;2023-05-10T12:01:36;19.20;79.30
12408;DHT22;6268;48.188;17.134;2023-05-10T12:04:05;19.10;77.10
12408;DHT22;6268;48.188;17.134;2023-05-10T12:06:40;18.90;77.60
12408;DHT22;6268;48.188;17.134;2023-05-10T12:09:09;18.90;79.30
12408;DHT22;6268;48.188;17.134;2023-05-10T12:11:39;19.20;76.60
12408;DHT22;6268;48.188;17.134;2023-05-10T12:14:10;19.50;76.30
12408;DHT22;6268;48.188;17.134;2023-05-10T12:16:43;19.50;74.10
12408;DHT22;6268;48.188;17.134;2023-05-10T12:19:12;19.30;74.00
12408;DHT22;6268;48.188;17.134;2023-05-10T12:21:41;19.20;74.10
12408;DHT22;6268;48.188;17.134;2023-05-10T12:24:09;19.30;75.30
12408;DHT22;6268;48.188;17.134;2023-05-10T12:26:39;19.30;76.60
12408;DHT22;6268;48.188;17.134;2023-05-10T12:29:25;19.10;77.10
12408;DHT22;6268;48.188;17.134;2023-05-10T12:32:00;18.80;77.40
12408;DHT22;6268;48.188;17.134;2023-05-10T12:34:31;18.80;78.10
12408;DHT22;6268;48.188;17.134;2023-05-10T12:37:02;18.80;76.30
12408;DHT22;6268;48.188;17.134;2023-05-10T12:39:41;18.90;76.80
12408;DHT22;6268;48.188;17.134;2023-05-10T12:42:11;18.90;73.50
12408;DHT22;6268;48.188;17.134;2023-05-10T12:44:40;18.90;74.30
12408;DHT22;6268;48.188;17.134;2023-05-10T12:47:10;19.10;74.50
12408;DHT22;6268;48.188;17.134;2023-05-10T12:49:38;19.20;73.50
12408;DHT22;6268;48.188;17.134;2023-05-10T12:52:07;19.20;74.80
12408;DHT22;6268;48.188;17.134;2023-05-10T12:54:36;19.10;75.10
12408;DHT22;6268;48.188;17.134;2023-05-10T12:57:04;19.40;75.10
12408;DHT22;6268;48.188;17.134;2023-05-10T12:59:33;19.50;72.70
12408;DHT22;6268;48.188;17.134;2023-05-10T13:02:04;19.30;72.50
12408;DHT22;6268;48.188;17.134;2023-05-10T13:04:34;19.20;73.60
12408;DHT22;6268;48.188;17.134;2023-05-10T13:07:04;19.10;73.40
12408;DHT22;6268;48.188;17.134;2023-05-10T13:09:33;19.30;72.00
12408;DHT22;6268;48.188;17.134;2023-05-10T13:12:02;19.20;69.30
12408;DHT22;6268;48.188;17.134;2023-05-10T13:14:33;19.10;71.40
12408;DHT22;6268;48.188;17.134;2023-05-10T13:17:02;19.30;73.00
12408;DHT22;6268;48.188;17.134;2023-05-10T13:19:31;19.40;70.50
12408;DHT22;6268;48.188;17.134;2023-05-10T13:22:01;19.10;65.30
12408;DHT22;6268;48.188;17.134;2023-05-10T13:24:29;19.00;66.00
12408;DHT22;6268;48.188;17.134;2023-05-10T13:26:58;19.00;69.80
12408;DHT22;6268;48.188;17.134;2023-05-10T13:29:27;19.00;67.40
12408;DHT22;6268;48.188;17.134;2023-05-10T13:31:55;19.10;64.60
12408;DHT22;6268;48.188;17.134;2023-05-10T13:34:24;19.20;67.00
12408;DHT22;6268;48.188;17.134;2023-05-10T13:36:53;19.30;68.00
12408;DHT22;6268;48.188;17.134;2023-05-10T13:39:24;19.30;67.00
12408;DHT22;6268;48.188;17.134;2023-05-10T13:41:53;19.40;67.30
12408;DHT22;6268;48.188;17.134;2023-05-10T13:44:21;19.40;66.10
12408;DHT22;6268;48.188;17.134;2023-05-10T13:46:50;19.40;66.40
12408;DHT22;6268;48.188;17.134;2023-05-10T13:49:19;19.50;63.60
12408;DHT22;6268;48.188;17.134;2023-05-10T13:51:48;19.50;63.70
12408;DHT22;6268;48.188;17.134;2023-05-10T13:54:20;19.50;62.90
12408;DHT22;6268;48.188;17.134;2023-05-10T13:56:50;19.50;64.60
12408;DHT22;6268;48.188;17.134;2023-05-10T13:59:19;19.60;64.20
12408;DHT22;6268;48.188;17.134;2023-05-10T14:01:47;19.70;64.90
12408;DHT22;6268;48.188;17.134;2023-05-10T14:04:16;19.80;65.50
12408;DHT22;6268;48.188;17.134;2023-05-10T14:06:45;19.70;64.70
12408;DHT22;6268;48.188;17.134;2023-05-10T14:09:14;19.50;65.80
12408;DHT22;6268;48.188;17.134;2023-05-10T14:11:42;19.30;66.20
12408;DHT22;6268;48.188;17.134;2023-05-10T14:14:13;19.30;66.40
12408;DHT22;6268;48.188;17.134;2023-05-10T14:16:43;19.40;65.30
12408;DHT22;6268;48.188;17.134;2023-05-10T14:19:13;19.60;65.70
12408;DHT22;6268;48.188;17.134;2023-05-10T14:21:42;19.60;64.80
12408;DHT22;6268;48.188;17.134;2023-05-10T14:24:11;19.60;65.30
12408;DHT22;6268;48.188;17.134;2023-05-10T14:26:40;19.60;65.60
12408;DHT22;6268;48.188;17.134;2023-05-10T14:29:08;19.50;65.70
12408;DHT22;6268;48.188;17.134;2023-05-10T14:31:40;19.60;65.80
12408;DHT22;6268;48.188;17.134;2023-05-10T14:34:09;19.50;65.30
12408;DHT22;6268;48.188;17.134;2023-05-10T14:36:40;19.40;65.00
12408;DHT22;6268;48.188;17.134;2023-05-10T14:39:08;19.50;64.90
12408;DHT22;6268;48.188;17.134;2023-05-10T14:41:39;19.40;64.80
12408;DHT22;6268;48.188;17.134;2023-05-10T14:44:10;19.40;65.00
12408;DHT22;6268;48.188;17.134;2023-05-10T14:46:40;19.40;64.30
12408;DHT22;6268;48.188;17.134;2023-05-10T14:49:08;19.40;64.50
12408;DHT22;6268;48.188;17.134;2023-05-10T14:51:37;19.40;64.30
12408;DHT22;6268;48.188;17.134;2023-05-10T14:54:06;19.30;62.60
12408;DHT22;6268;48.188;17.134;2023-05-10T14:56:35;19.30;62.10
12408;DHT22;6268;48.188;17.134;2023-05-10T14:59:04;19.30;61.30
12408;DHT22;6268;48.188;17.134;2023-05-10T15:01:33;19.40;61.30
12408;DHT22;6268;48.188;17.134;2023-05-10T15:04:06;19.40;62.10
12408;DHT22;6268;48.188;17.134;2023-05-10T15:06:35;19.40;62.70
12408;DHT22;6268;48.188;17.134;2023-05-10T15:09:04;19.40;62.30
12408;DHT22;6268;48.188;17.134;2023-05-10T15:11:33;19.50;62.80
12408;DHT22;6268;48.188;17.134;2023-05-10T15:14:01;19.40;61.00
12408;DHT22;6268;48.188;17.134;2023-05-10T15:16:30;19.40;59.60
12408;DHT22;6268;48.188;17.134;2023-05-10T15:19:02;19.40;60.50
12408;DHT22;6268;48.188;17.134;2023-05-10T15:21:32;19.50;60.90
12408;DHT22;6268;48.188;17.134;2023-05-10T15:24:05;19.50;60.70
12408;DHT22;6268;48.188;17.134;2023-05-10T15:26:34;19.50;62.40
12408;DHT22;6268;48.188;17.134;2023-05-10T15:29:03;19.60;62.30
12408;DHT22;6268;48.188;17.134;2023-05-10T15:31:32;19.60;62.80
12408;DHT22;6268;48.188;17.134;2023-05-10T15:34:02;19.70;63.70
12408;DHT22;6268;48.188;17.134;2023-05-10T15:36:32;19.50;63.20
12408;DHT22;6268;48.188;17.134;2023-05-10T15:39:01;19.50;62.10
12408;DHT22;6268;48.188;17.134;2023-05-10T15:41:31;19.50;63.20
12408;DHT22;6268;48.188;17.134;2023-05-10T15:44:00;19.50;62.60
12408;DHT22;6268;48.188;17.134;2023-05-10T15:46:28;19.40;61.40
12408;DHT22;6268;48.188;17.134;2023-05-10T15:48:58;19.30;62.40
12408;DHT22;6268;48.188;17.134;2023-05-10T15:51:27;19.30;64.00
12408;DHT22;6268;48.188;17.134;2023-05-10T15:53:57;19.30;63.40
12408;DHT22;6268;48.188;17.134;2023-05-10T15:56:34;19.30;62.20
12408;DHT22;6268;48.188;17.134;2023-05-10T15:59:03;19.30;63.10
12408;DHT22;6268;48.188;17.134;2023-05-10T16:01:34;19.30;61.60